LIBRDTTA

Guest
Details From LIBR - BRINDISI/Casale
To DTTA - CARTHAGE
Flight Number -
Tags generated
Created
Modified
Stats Distance 453 nm / 839 km
Max Altitude 34,000 ft / 10,363 m
Waypoints 8
Social Downloads 0
Likes 0
Share VATSIM

Download

Looking for another format? Having issues loading an existing format? Contact us
Advertisement - Login to hide

Notes

Basic altitude profile: - Ascent Rate: 2500ft/min - Ascent Speed: 250kts - Cruise Altitude: 35000ft - Cruise Speed: 420kts - Descent Rate: 1500ft/min - Descent Speed: 250kts Options: - Use NATs: yes - Use PACOTS: yes - Use low airways: yes - Use high airways: yes

Route

LIBR MATED UM603 VEGAN UP748 MEGAN DTTA

ID Type Via Altitude Latitude Longitude Leg Dist Tot Dist Heading (true) Name
O LIBR APT - 0 ft / 0 m 40.66082˚ 17.94267˚ - 0 nm - BRINDISI/Casale
MATED FIX - 28,900 ft / 8,809 m 40.61056˚ 16.16833˚ 80 nm 80 nm 268° / 267° -
VEGAN FIX UM603 (AWY-HI) 34,000 ft / 10,363 m 40.60444˚ 15.46917˚ 31 nm 112 nm 270° / 269° -
POLIT FIX UP748 (AWY-HI) 34,000 ft / 10,363 m 40.14667˚ 14.83333˚ 40 nm 152 nm 227° / 226° -
VARAL FIX UP748 (AWY-HI) 34,000 ft / 10,363 m 40.01417˚ 14.64139˚ 11 nm 164 nm 228° / 228° -
AMANO FIX UP748 (AWY-HI) 34,000 ft / 10,363 m 39.42167˚ 13.79667˚ 52 nm 217 nm 228° / 227° -
MEGAN FIX UP748 (AWY-HI) 24,500 ft / 7,468 m 37.53778˚ 11.99722˚ 141 nm 358 nm 217° / 216° -
O DTTA APT - 0 ft / 0 m 36.85127˚ 10.23003˚ 94 nm 452 nm 245° / 243° CARTHAGE

Altitude Profile

Advertisement - Login to hide

Weather


0- 5 10 15 20 25 30 35+ Temperature / ° C

Clouds and Precipitation
Forecast for 2017-12-16 18:00 UTC. Updated 2 hours ago

Ground ~20,000 ft ~40,000 ft Winds

LIBR

Details ICAO LIBR (BDS)
Name BRINDISI/Casale
Region Italy
Timezone Europe/Rome (UTC+1.0)
Stats Elevation 47 ft / 14 m (AMSL)
Location 40.660824° 17.942673°
Runways 2
Magnetic Variation 3.890° E

METAR

LIBR 161645Z 35004KT 9999 BKN040 14/12 Q1008 NOSIG RMK BKN VIS MIN 9999 WIND THR31 35004KT BLU

Decode

TAF

TAF LIBR 161100Z 1612/1712 26008KT 9999 SCT040= TAF COR LIRF 161144Z 1612/1718 25017KT 9999 SCT030 BECMG 1616/1618 31010KT TEMPO 1616/1621 RA BECMG 1622/1624 01012KT

Decode

Departure Runways

ID Width Length Bearing (true) Bearing (mag) Surface Threshold Offset Overrun Length
13 148 ft / 45 m 9,398 ft / 2,865 m 136.56° 132.67° Asphalt 0 ft / 0 m 689 ft / 210 m
23 148 ft / 45 m 6,129 ft / 1,868 m 232.52° 228.63° Asphalt 230 ft / 70 m 0 ft / 0 m
31 148 ft / 45 m 9,398 ft / 2,865 m 316.58° 312.69° Asphalt 0 ft / 0 m 387 ft / 118 m
5 148 ft / 45 m 6,129 ft / 1,868 m 52.51° 48.62° Asphalt 0 ft / 0 m 0 ft / 0 m

DTTA

Details ICAO DTTA (TUN)
Name CARTHAGE
Region Tunisia
Timezone Africa/Tunis (UTC+1.0)
Stats Elevation 22 ft / 7 m (AMSL)
Location 36.851267° 10.230027°
Runways 2
Magnetic Variation 2.404° E

METAR

DTTA 161700Z 31007KT 8000 SCT023 11/09 Q1013

Decode

TAF

TAF DTTA 161100Z 1612/1712 32015KT 8000 SCT023 PROB40 TEMPO 1612/1621 35025G35KT -SHRA FEW020TCU SCT030CB BECMG 1618/1620 26015KT

Decode

Destination Runways

ID Width Length Bearing (true) Bearing (mag) Surface Threshold Offset Overrun Length
01 148 ft / 45 m 10,502 ft / 3,201 m 12.29° 9.89° Asphalt 0 ft / 0 m 197 ft / 60 m
11 148 ft / 45 m 9,345 ft / 2,848 m 112.55° 110.15° Asphalt 0 ft / 0 m 643 ft / 196 m
19 148 ft / 45 m 10,502 ft / 3,201 m 192.29° 189.89° Asphalt 0 ft / 0 m 197 ft / 60 m
29 148 ft / 45 m 9,345 ft / 2,848 m 292.57° 290.17° Asphalt 657 ft / 200 m 197 ft / 60 m

Approach Navaids

Runway Type Ident Frequency Range Bearing (true) Bearing (mag) Slope Elevation
01 Glidescope TBL 111.10 MHz 10 nm / 19 km 10.00° 7.60° 3.00° 22 ft / 7 m (AMSL)
01 DME TBL 111.10 MHz 18 nm / 33 km - - - 22 ft / 7 m (AMSL)
19 Localiser TSI 110.30 MHz 18 nm / 33 km 192.29° 189.89° - 13 ft / 4 m (AMSL)
19 Glidescope TSI 110.30 MHz 10 nm / 19 km 192.29° 189.89° 3.00° 22 ft / 7 m (AMSL)
29 Localiser TKE 108.50 MHz 18 nm / 33 km 292.54° 290.14° - 22 ft / 7 m (AMSL)
29 Glidescope TKE 108.50 MHz 10 nm / 19 km 292.56° 290.15° 3.00° 22 ft / 7 m (AMSL)
29 DME TKE 108.50 MHz 18 nm / 33 km - - - 22 ft / 7 m (AMSL)